Gelantipy, Australia
Current Conditions -  °F | °C
As of 7:30 AM on Sunday 26 Oct 2014 (Local Time) from YCOM Reporting Station
Overcast Overcast  
Wind Chill: 52°   Ceiling: 200
Heat Index: 52°   Visibility: 0.31mi
Dew Point: 52°   Wind: 7mph
Humidity: 100%   Direction: 200°SSW
Pressure: 29.91"   Gusts: NA
Location:  37.22°S, 148.26°E
Report Text: YCOM 252030Z AUTO 20006KT 0500 // OVC002 11/11 Q1013
Loading
Personal Weather Stations






























Interactive Weather Map
Tropical Storm Tracking
New forecast layout! Learn more

10-Day Weather Forecast

Advertisements
Track Severe Weather on mobile